Berwick, IA

7:08 AM CDT on May 24, 2017 (GMT -0500)
MRTOI4 | | Change Station
Active Advisory: Flood Warning

Elev 859 ft 41.66 °N, 93.52 °W | Updated 7 days ago

Overcast
Overcast
86.0 °F
Feels Like 89 °F
N
12.0
Wind Variable Wind from SSW

Today
High -- | Low -- °F
--% Chance of Precip.
Yesterday
High -- | Low -- °F
Precip. -- in
Pressure 29.69 in
Visibility 10.0 miles
Clouds Mostly Cloudy 1200 ft
Mostly Cloudy 1700 ft
Overcast 7500 ft
Heat Index 89 °F
Dew Point 67.0 °F
Humidity 54%
Rainfall in
Snow Depth Not available.
5:46 AM 8:35 PM
Waning Crescent, 3% visible
METAR KIKV 241155Z AUTO 36008G13KT 10SM BKN012 BKN017 OVC075 11/10 A2969 RMK AO2
Pressure 29.69 in
Visibility 10.0 miles
Clouds Mostly Cloudy 1200 ft
Mostly Cloudy 1700 ft
Overcast 7500 ft
Heat Index 89 °F
Dew Point 67.0 °F
Humidity 54%
Rainfall in
Snow Depth Not available.
5:46 AM 8:35 PM
Waning Crescent, 3% visible
METAR KIKV 241155Z AUTO 36008G13KT 10SM BKN012 BKN017 OVC075 11/10 A2969 RMK AO2

Get Your Daily Forecast Email!

Thanks for signing up!

Be on the lookout for a verification email in your inbox.

You'll start receiving severe weather alerts in your inbox..

×

10-Day Weather Forecast

Almanac

Astronomy

May. 24, 2017 Rise Set
Actual Time
Civil Twilight
Nautical Twilight
Astronomical Twilight
Moon
Length of Visible Light
Length of Day
Tomorrow will be .
, % of the Moon is Illuminated

Today's Extremes

State Highs State Lows

Community

WunderPhotos

Category 6

Welcome to Category 6. This is the collective home for Weather Underground's featured writeups by Dr. Jeff Masters (right), Bob Henson (left), Chris Burt, and other regular contributors.

Nearby

Air Quality

  Air Quality AQ Index Pollutant
Not available.

Snow Depth

Station Depth Elevation

Earthquake Activity

City Distance Mag. Time & Date
Minimum magnitude displayed is 2.5.

Coastal Water Temperatures

Place Temperature

Stations

Nearby Weather Stations

Station Location Temp. Windchill Dew Point Humidity Wind Precip. Elev Updated Type
                   

Watches & Warnings

Flood Warning
Issued: 3:34 AM CDT May. 24, 2017 – National Weather Service

... Flood Warning remains in effect until Thursday morning...

The Flood Warning continues for
the Des Moines River at Des Moines se 6th St... or from below the
center street dam... to Runnells.
* Until Thursday morning.
* At 3:00 am Wednesday the stage was 24.0 feet.
* Flood stage is 24.0 feet.
* Minor flooding is occurring and is forecast to continue.
* Forecast... rise to 24.1 feet... or 0.1 feet above flood stage... this
evening. Then begin falling and go below flood stage Thursday
morning.
* Impact... at 24.0 feet... the bike trail is closed east of Water
Street. Portions of other bike trails are also affected.


Lat... Lon 4159 9356 4152 9333 4145 9333 4154 9356
      4159 9366 4159 9356